Vlissingen, Netherlands
Current Conditions -  °F | °C
As of 3:25 PM on Monday 22 Dec 2014 (Local Time) from EHFS Reporting Station
Scattered Clouds Scattered Clouds  
Wind Chill: 52°   Ceiling: Unl
Heat Index: 52°   Visibility: 5mi
Dew Point: 46°   Wind: 39mph
Humidity: 82%   Direction: 250°WSW
Pressure: 30.03"   Gusts: NA
Location:  51.5°N, 3.52°E
Report Text: EHFS 221425Z AUTO 25034KT 8000 FEW016/// SCT030/// 11/08 Q1017
Loading
Personal Weather Stations






























Interactive Weather Map New forecast layout! Learn more

10-Day Weather Forecast

Advertisements
Track Severe Weather on mobile